Аэропорт: Елизово. Петропавловск-Камчатский

ICAO: UHPP

METAR:
2019/03/26 13:00
UHPP 261300Z 31005MPS 9999 NSC M03/M11 Q0991 R34L/CLRD70 NOSIG RMK QFE740/0987
METAR:
2019/03/26 12:20
TAF UHPP 261059Z 2612/2718 33003G12MPS 9999 SCT040CB 
     FM270000 31003G12MPS 9999 BKN030CB 
      TEMPO 2703/2712 19003G12MPS